createdAt,value
2017-01-01T00:00:06.537Z,6.75
2017-01-01T00:00:47.024Z,6.74
2017-01-01T00:01:27.490Z,6.77
2017-01-01T00:02:07.974Z,6.85
2017-01-01T00:02:48.470Z,6.77
2017-01-01T00:03:28.946Z,6.77
2017-01-01T00:04:09.403Z,6.84
2017-01-01T00:04:49.891Z,6.79
2017-01-01T00:05:30.333Z,6.78
2017-01-01T00:06:10.820Z,6.82
2017-01-01T00:06:51.304Z,6.79
2017-01-01T00:07:31.851Z,6.82
2017-01-01T00:08:12.362Z,6.78
2017-01-01T00:08:52.824Z,6.79
2017-01-01T00:09:33.319Z,6.82
2017-01-01T00:10:13.785Z,6.75
2017-01-01T00:10:54.243Z,6.87
2017-01-01T00:11:34.756Z,6.75
2017-01-01T00:12:15.248Z,6.82
2017-01-01T00:12:55.730Z,6.78
2017-01-01T00:13:36.210Z,6.75
2017-01-01T00:14:16.687Z,6.79
2017-01-01T00:14:57.176Z,6.75
2017-01-01T00:15:37.685Z,6.82
2017-01-01T00:16:18.131Z,6.78
2017-01-01T00:16:58.626Z,6.78
2017-01-01T00:17:39.124Z,6.81
2017-01-01T00:18:19.584Z,6.77
2017-01-01T00:19:00.060Z,6.74
2017-01-01T00:19:40.563Z,6.82
2017-01-01T00:20:21.030Z,6.72
2017-01-01T00:21:01.498Z,6.82
2017-01-01T00:21:42.004Z,6.78
2017-01-01T00:22:22.494Z,6.81
2017-01-01T00:23:02.948Z,6.78
2017-01-01T00:23:43.420Z,6.78
2017-01-01T00:24:23.902Z,6.77
2017-01-01T00:25:04.380Z,6.81
2017-01-01T00:25:44.854Z,6.79
2017-01-01T00:26:25.321Z,6.77
2017-01-01T00:27:05.780Z,6.79
2017-01-01T00:27:46.300Z,6.78
2017-01-01T00:28:26.764Z,6.72
2017-01-01T00:29:07.205Z,6.79
2017-01-01T00:29:47.687Z,6.82
2017-01-01T00:30:28.173Z,6.74
2017-01-01T00:31:08.634Z,6.78
2017-01-01T00:31:49.108Z,6.74
2017-01-01T00:32:29.569Z,6.79
2017-01-01T00:33:10.096Z,6.74
2017-01-01T00:33:50.558Z,6.79
2017-01-01T00:34:31.042Z,6.82
2017-01-01T00:35:11.515Z,6.82
2017-01-01T00:35:52.025Z,6.77
2017-01-01T00:36:32.499Z,6.82
2017-01-01T00:37:12.984Z,6.84
2017-01-01T00:37:53.465Z,6.84
2017-01-01T00:38:33.943Z,6.75
2017-01-01T00:39:14.445Z,6.77
2017-01-01T00:39:54.984Z,6.78
2017-01-01T00:40:35.424Z,6.79
2017-01-01T00:41:15.906Z,6.78
2017-01-01T00:41:56.381Z,6.85
2017-01-01T00:42:36.839Z,6.85
2017-01-01T00:43:17.332Z,6.88
2017-01-01T00:43:57.775Z,6.81
2017-01-01T00:44:38.242Z,6.85
2017-01-01T00:45:18.740Z,6.89
2017-01-01T00:45:59.213Z,6.84
2017-01-01T00:46:39.672Z,6.85
2017-01-01T00:47:20.161Z,6.85
2017-01-01T00:48:00.636Z,6.82
2017-01-01T00:48:41.135Z,6.85
2017-01-01T00:49:21.606Z,6.88
2017-01-01T00:50:02.072Z,6.82
2017-01-01T00:50:42.535Z,6.87
2017-01-01T00:51:23.011Z,6.81
2017-01-01T00:52:03.505Z,6.82
2017-01-01T00:52:43.988Z,6.89
2017-01-01T00:53:24.494Z,6.85
2017-01-01T00:54:04.973Z,6.85
2017-01-01T00:54:45.482Z,6.87
2017-01-01T00:55:25.950Z,6.79
2017-01-01T00:56:06.423Z,6.88
2017-01-01T00:56:46.904Z,6.82
2017-01-01T00:57:27.364Z,6.99
2017-01-01T00:58:07.841Z,6.87
2017-01-01T00:58:48.323Z,6.88
2017-01-01T00:59:28.789Z,6.87
2017-01-01T01:00:09.248Z,6.95
2017-01-01T01:00:49.762Z,6.88
2017-01-01T01:01:30.214Z,6.88
2017-01-01T01:02:10.673Z,6.81
2017-01-01T01:02:51.177Z,6.89
2017-01-01T01:03:31.645Z,6.85
2017-01-01T01:04:12.118Z,6.82
2017-01-01T01:04:52.586Z,6.95
2017-01-01T01:05:33.033Z,6.82
2017-01-01T01:06:13.506Z,6.92
2017-01-01T01:06:53.987Z,6.89
2017-01-01T01:07:34.492Z,6.87
2017-01-01T01:08:14.941Z,6.89
2017-01-01T01:08:55.417Z,6.85
2017-01-01T01:09:35.893Z,6.95
2017-01-01T01:10:16.402Z,7
2017-01-01T01:10:56.875Z,6.92
2017-01-01T01:11:37.350Z,6.96
2017-01-01T01:12:17.806Z,6.96
2017-01-01T01:12:58.285Z,6.82
2017-01-01T01:13:38.774Z,6.92
2017-01-01T01:14:19.265Z,6.89
2017-01-01T01:14:59.721Z,6.88
2017-01-01T01:15:40.224Z,6.85
2017-01-01T01:16:20.718Z,6.88
2017-01-01T01:17:01.183Z,6.95
2017-01-01T01:17:41.649Z,6.88
2017-01-01T01:18:22.138Z,7
2017-01-01T01:19:02.644Z,6.92
2017-01-01T01:19:43.074Z,6.89
2017-01-01T01:20:23.573Z,6.95
2017-01-01T01:21:04.045Z,6.89
2017-01-01T01:21:44.524Z,6.96
2017-01-01T01:22:25.032Z,6.89
2017-01-01T01:23:05.535Z,6.87
2017-01-01T01:23:45.994Z,6.95
2017-01-01T01:24:26.437Z,6.96
2017-01-01T01:25:06.917Z,6.88
2017-01-01T01:25:47.374Z,6.93
2017-01-01T01:26:27.857Z,6.89
2017-01-01T01:27:08.343Z,6.88
2017-01-01T01:27:48.852Z,6.87
2017-01-01T01:28:29.276Z,6.89
2017-01-01T01:29:09.748Z,6.93
2017-01-01T01:29:50.234Z,6.92
2017-01-01T01:30:30.741Z,6.92
2017-01-01T01:31:11.201Z,6.93
2017-01-01T01:31:51.665Z,6.93
2017-01-01T01:32:32.155Z,6.93
2017-01-01T01:33:12.621Z,6.87
2017-01-01T01:33:53.117Z,6.88
2017-01-01T01:34:33.593Z,6.89
2017-01-01T01:35:14.038Z,6.93
2017-01-01T01:35:54.499Z,6.92
2017-01-01T01:36:34.991Z,6.97
2017-01-01T01:37:15.462Z,6.89
2017-01-01T01:37:55.918Z,6.93
2017-01-01T01:38:36.384Z,6.93
2017-01-01T01:39:16.850Z,6.88
2017-01-01T01:39:57.336Z,6.92
2017-01-01T01:40:37.783Z,6.96
2017-01-01T01:41:18.250Z,6.93
2017-01-01T01:41:58.698Z,6.93
2017-01-01T01:42:39.171Z,6.89
2017-01-01T01:43:19.664Z,6.88
2017-01-01T01:44:00.161Z,6.89
2017-01-01T01:44:40.632Z,6.92
2017-01-01T01:45:21.132Z,6.88
2017-01-01T01:46:01.587Z,6.89
2017-01-01T01:46:42.088Z,6.89
2017-01-01T01:47:22.524Z,6.93
2017-01-01T01:48:03.009Z,6.93
2017-01-01T01:48:43.469Z,6.97
2017-01-01T01:49:23.935Z,6.92
2017-01-01T01:50:04.390Z,6.93
2017-01-01T01:50:44.902Z,6.95
2017-01-01T01:51:25.375Z,6.95
2017-01-01T01:52:05.845Z,6.88
2017-01-01T01:52:46.307Z,6.96
2017-01-01T01:53:26.770Z,6.96
2017-01-01T01:54:07.273Z,6.97
2017-01-01T01:54:47.761Z,6.97
2017-01-01T01:55:28.273Z,6.96
2017-01-01T01:56:08.711Z,6.99
2017-01-01T01:56:49.211Z,6.88
2017-01-01T01:57:29.712Z,7
2017-01-01T01:58:10.147Z,7.03
2017-01-01T01:58:50.613Z,7.02
2017-01-01T01:59:31.082Z,6.96
2017-01-01T02:00:11.605Z,7.03
2017-01-01T02:00:52.099Z,7
2017-01-01T02:01:32.540Z,7.03
2017-01-01T02:02:13.006Z,6.97
2017-01-01T02:02:53.502Z,6.97
2017-01-01T02:03:33.975Z,7.03
2017-01-01T02:04:14.461Z,7.05
2017-01-01T02:04:54.948Z,6.96
2017-01-01T02:05:35.423Z,6.99
2017-01-01T02:06:15.903Z,6.97
2017-01-01T02:06:56.370Z,6.97
2017-01-01T02:07:36.870Z,6.99
2017-01-01T02:08:17.338Z,6.97
2017-01-01T02:08:57.806Z,7
2017-01-01T02:09:38.281Z,6.99
2017-01-01T02:10:18.766Z,7
2017-01-01T02:10:59.220Z,7.03
2017-01-01T02:11:39.720Z,7.03
2017-01-01T02:12:20.214Z,7.02
2017-01-01T02:13:00.706Z,6.96
2017-01-01T02:13:41.174Z,6.99
2017-01-01T02:14:21.628Z,7.03
2017-01-01T02:15:02.083Z,6.96
2017-01-01T02:15:42.550Z,7
2017-01-01T02:16:23.016Z,7.02
2017-01-01T02:17:03.490Z,7
2017-01-01T02:17:43.952Z,7.03
2017-01-01T02:18:24.430Z,7.03
2017-01-01T02:19:04.929Z,6.97
2017-01-01T02:19:45.387Z,6.97
2017-01-01T02:20:25.894Z,7.03
2017-01-01T02:21:06.359Z,7.06
2017-01-01T02:21:46.884Z,6.99
2017-01-01T02:22:27.353Z,7.06
2017-01-01T02:23:07.793Z,7.03
2017-01-01T02:23:48.292Z,7
2017-01-01T02:24:28.741Z,7.06
2017-01-01T02:25:09.247Z,7
2017-01-01T02:25:49.711Z,7
2017-01-01T02:26:30.212Z,7
2017-01-01T02:27:10.718Z,6.99
2017-01-01T02:27:51.169Z,7.02
2017-01-01T02:28:31.645Z,6.97
2017-01-01T02:29:12.140Z,6.96
2017-01-01T02:29:52.612Z,6.99
2017-01-01T02:30:33.096Z,6.96
2017-01-01T02:31:13.591Z,6.99
2017-01-01T02:31:54.057Z,7
2017-01-01T02:32:34.519Z,7.02
2017-01-01T02:33:15.014Z,7.05
2017-01-01T02:33:55.486Z,6.99
2017-01-01T02:34:35.993Z,6.99
2017-01-01T02:35:16.469Z,7.02
2017-01-01T02:35:56.979Z,7.05
2017-01-01T02:36:37.522Z,7.05
2017-01-01T02:37:17.988Z,7.03
2017-01-01T02:37:58.504Z,7.1
2017-01-01T02:38:38.992Z,6.97
2017-01-01T02:39:19.492Z,7
2017-01-01T02:39:59.990Z,7.11
2017-01-01T02:40:40.476Z,6.99
2017-01-01T02:41:20.954Z,7.02
2017-01-01T02:42:01.464Z,7.02
2017-01-01T02:42:41.947Z,7.02
2017-01-01T02:43:22.444Z,7.07
2017-01-01T02:44:02.906Z,7.05
2017-01-01T02:44:43.395Z,7.05
2017-01-01T02:45:23.900Z,7.03
2017-01-01T02:46:04.396Z,7.06
2017-01-01T02:46:44.855Z,7.02
2017-01-01T02:47:25.345Z,7
2017-01-01T02:48:05.812Z,7.1
2017-01-01T02:48:46.308Z,7.03
2017-01-01T02:49:26.748Z,7.11
2017-01-01T02:50:07.263Z,7.03
2017-01-01T02:50:47.738Z,6.97
2017-01-01T02:51:28.222Z,6.97
2017-01-01T02:52:08.697Z,6.95
2017-01-01T02:52:49.183Z,6.97
2017-01-01T02:53:29.666Z,7.05
2017-01-01T02:54:10.172Z,7.02
2017-01-01T02:54:50.606Z,7.05
2017-01-01T02:55:31.119Z,7.14
2017-01-01T02:56:11.610Z,7.14
2017-01-01T02:56:52.095Z,7.05
2017-01-01T02:57:32.592Z,6.99
2017-01-01T02:58:13.060Z,7.11
2017-01-01T02:58:53.558Z,7.11
2017-01-01T02:59:34.034Z,7.13
2017-01-01T03:00:14.519Z,7.13
2017-01-01T03:00:55.020Z,7
2017-01-01T03:01:35.500Z,7.15
2017-01-01T03:02:15.969Z,7.15
2017-01-01T03:02:56.455Z,7.13
2017-01-01T03:03:36.929Z,7.11
2017-01-01T03:04:17.393Z,7.13
2017-01-01T03:04:57.876Z,7.11
2017-01-01T03:05:38.329Z,7.15
2017-01-01T03:06:18.846Z,7.15
2017-01-01T03:06:59.321Z,7.15
2017-01-01T03:07:39.833Z,7.14
2017-01-01T03:08:20.310Z,7.11
2017-01-01T03:09:00.798Z,7.11
2017-01-01T03:09:41.277Z,7.11
2017-01-01T03:10:21.774Z,7.11
2017-01-01T03:11:02.251Z,7.1
2017-01-01T03:11:42.730Z,7.11
2017-01-01T03:12:23.202Z,7.14
2017-01-01T03:13:03.693Z,7.15
2017-01-01T03:13:44.176Z,7.15
2017-01-01T03:14:24.646Z,7.14
2017-01-01T03:15:05.140Z,7.15
2017-01-01T03:15:45.595Z,7.07
2017-01-01T03:16:26.099Z,7.14
2017-01-01T03:17:06.588Z,7.14
2017-01-01T03:17:47.217Z,6.99
2017-01-01T03:18:27.739Z,7.07
2017-01-01T03:19:08.226Z,7.11
2017-01-01T03:19:48.732Z,7
2017-01-01T03:20:29.236Z,7.03
2017-01-01T03:21:09.705Z,7.15
2017-01-01T03:21:50.156Z,6.97
2017-01-01T03:22:30.666Z,7.02
2017-01-01T03:23:11.134Z,7.1
2017-01-01T03:23:51.633Z,7.1
2017-01-01T03:24:32.112Z,7.13
2017-01-01T03:25:12.600Z,7.02
2017-01-01T03:25:53.059Z,6.99
2017-01-01T03:26:33.575Z,7.05
2017-01-01T03:27:14.035Z,6.97
2017-01-01T03:27:54.548Z,6.97
2017-01-01T03:28:35.040Z,7.02
2017-01-01T03:29:15.513Z,7.1
2017-01-01T03:29:56.030Z,7.03
2017-01-01T03:30:36.543Z,6.99
2017-01-01T03:31:17.014Z,7.11
2017-01-01T03:31:57.511Z,7.02
2017-01-01T03:32:37.992Z,6.99
2017-01-01T03:33:18.494Z,6.99
2017-01-01T03:33:58.944Z,6.95
2017-01-01T03:34:39.435Z,7.1
2017-01-01T03:35:19.900Z,6.99
2017-01-01T03:36:00.462Z,6.97
2017-01-01T03:36:40.957Z,7.05
2017-01-01T03:37:21.449Z,7.02
2017-01-01T03:38:01.964Z,7.03
2017-01-01T03:38:42.442Z,7
2017-01-01T03:39:22.938Z,7.02
2017-01-01T03:40:03.443Z,7.03
2017-01-01T03:40:43.915Z,6.99
2017-01-01T03:41:24.411Z,7.11
2017-01-01T03:42:04.893Z,6.99
2017-01-01T03:42:45.373Z,6.99
2017-01-01T03:43:25.874Z,7.02
2017-01-01T03:44:06.365Z,7.02
2017-01-01T03:44:46.874Z,7.17
2017-01-01T03:45:27.319Z,7.02
2017-01-01T03:46:07.814Z,6.99
2017-01-01T03:46:48.280Z,6.99
2017-01-01T03:47:28.756Z,7.14
2017-01-01T03:48:09.272Z,6.97
2017-01-01T03:48:49.734Z,7.03
2017-01-01T03:49:30.230Z,6.99
2017-01-01T03:50:10.730Z,7
2017-01-01T03:50:51.247Z,7.02
2017-01-01T03:51:31.742Z,7.02
2017-01-01T03:52:12.247Z,7.02
2017-01-01T03:52:52.745Z,7.03
2017-01-01T03:53:33.213Z,7
2017-01-01T03:54:13.665Z,7
2017-01-01T03:54:54.198Z,6.95
2017-01-01T03:55:34.658Z,7.03
2017-01-01T03:56:15.125Z,7.05
2017-01-01T03:56:55.612Z,7
2017-01-01T03:57:36.115Z,6.99
2017-01-01T03:58:16.595Z,6.99
2017-01-01T03:58:57.102Z,7.02
2017-01-01T03:59:37.563Z,6.99
2017-01-01T04:00:18.057Z,7.02
2017-01-01T04:00:58.522Z,6.99
2017-01-01T04:01:39.016Z,7.02
2017-01-01T04:02:19.487Z,6.95
2017-01-01T04:02:59.980Z,7
2017-01-01T04:03:40.451Z,7.03
2017-01-01T04:04:20.913Z,7.05
2017-01-01T04:05:01.424Z,7
2017-01-01T04:05:41.899Z,7.07
2017-01-01T04:06:22.368Z,7
2017-01-01T04:07:02.867Z,7.02
2017-01-01T04:07:43.334Z,7
2017-01-01T04:08:23.819Z,7.02
2017-01-01T04:09:04.308Z,6.99
2017-01-01T04:09:44.811Z,7.03
2017-01-01T04:10:25.255Z,7
2017-01-01T04:11:05.726Z,7.06
2017-01-01T04:11:46.212Z,7.06
2017-01-01T04:12:26.702Z,7
2017-01-01T04:13:07.188Z,7.02
2017-01-01T04:13:47.662Z,7
2017-01-01T04:14:28.145Z,7
2017-01-01T04:15:08.617Z,7.03
2017-01-01T04:15:49.103Z,7.03
2017-01-01T04:16:29.555Z,7
2017-01-01T04:17:10.044Z,7.02
2017-01-01T04:17:50.515Z,7.03
2017-01-01T04:18:31.012Z,7.02
2017-01-01T04:19:11.474Z,7
2017-01-01T04:19:51.979Z,7.02
2017-01-01T04:20:32.464Z,6.97
2017-01-01T04:21:12.966Z,7
2017-01-01T04:21:53.443Z,7.03
2017-01-01T04:22:33.930Z,7.05
2017-01-01T04:23:14.426Z,7.03
2017-01-01T04:23:54.867Z,6.97
2017-01-01T04:24:35.347Z,6.99
2017-01-01T04:25:15.822Z,6.99
2017-01-01T04:25:56.322Z,7.02
2017-01-01T04:26:36.791Z,7.03
2017-01-01T04:27:17.273Z,7.02
2017-01-01T04:27:57.753Z,7
2017-01-01T04:28:38.233Z,7.03
2017-01-01T04:29:18.731Z,6.97
2017-01-01T04:29:59.228Z,7.05
2017-01-01T04:30:39.684Z,7.05
2017-01-01T04:31:20.171Z,7
2017-01-01T04:32:00.676Z,7.02
2017-01-01T04:32:41.164Z,7.03
2017-01-01T04:33:21.654Z,7
2017-01-01T04:34:02.146Z,6.99
2017-01-01T04:34:42.610Z,6.96
2017-01-01T04:35:23.131Z,7.02
2017-01-01T04:36:03.607Z,6.95
2017-01-01T04:36:44.098Z,6.96
2017-01-01T04:37:24.603Z,6.92
2017-01-01T04:38:05.100Z,6.88
2017-01-01T04:38:45.579Z,6.92
2017-01-01T04:39:26.052Z,6.96
2017-01-01T04:40:06.564Z,6.87
2017-01-01T04:40:47.054Z,6.97
2017-01-01T04:41:27.551Z,6.95
2017-01-01T04:42:08.019Z,6.92
2017-01-01T04:42:48.485Z,6.89
2017-01-01T04:43:28.957Z,6.87
2017-01-01T04:44:09.458Z,6.82
2017-01-01T04:44:49.958Z,6.85
2017-01-01T04:45:30.469Z,6.87
2017-01-01T04:46:10.963Z,6.85
2017-01-01T04:46:51.455Z,6.77
2017-01-01T04:47:31.927Z,6.92
2017-01-01T04:48:12.418Z,6.87
2017-01-01T04:48:52.904Z,6.87
2017-01-01T04:49:33.410Z,6.87
2017-01-01T04:50:13.908Z,6.82
2017-01-01T04:50:54.383Z,6.78
2017-01-01T04:51:34.853Z,6.81
2017-01-01T04:52:15.402Z,6.78
2017-01-01T04:52:55.882Z,6.81
2017-01-01T04:53:36.368Z,6.81
2017-01-01T04:54:16.851Z,6.79
2017-01-01T04:54:57.352Z,6.79
2017-01-01T04:55:37.840Z,6.84
2017-01-01T04:56:18.354Z,6.75
2017-01-01T04:56:58.810Z,6.79
2017-01-01T04:57:39.283Z,6.75
2017-01-01T04:58:19.770Z,6.84
2017-01-01T04:59:00.244Z,6.82
2017-01-01T04:59:40.745Z,6.81
2017-01-01T05:00:21.224Z,6.81
2017-01-01T05:01:01.721Z,6.75
2017-01-01T05:01:42.214Z,6.78
2017-01-01T05:02:22.710Z,6.77
2017-01-01T05:03:03.184Z,6.79
2017-01-01T05:03:43.702Z,6.78
2017-01-01T05:04:24.141Z,6.77
2017-01-01T05:05:04.640Z,6.74
2017-01-01T05:05:45.136Z,6.74
2017-01-01T05:06:25.624Z,6.79
2017-01-01T05:07:06.102Z,6.82
2017-01-01T05:07:46.595Z,6.79
2017-01-01T05:08:27.095Z,6.77
2017-01-01T05:09:07.571Z,6.67
2017-01-01T05:09:48.059Z,6.72
2017-01-01T05:10:28.574Z,6.7
2017-01-01T05:11:09.019Z,6.69
2017-01-01T05:11:49.508Z,6.81
2017-01-01T05:12:29.969Z,6.74
2017-01-01T05:13:10.492Z,6.74
2017-01-01T05:13:50.971Z,6.74
2017-01-01T05:14:31.451Z,6.78
2017-01-01T05:15:11.928Z,6.81
2017-01-01T05:15:52.453Z,6.78
2017-01-01T05:16:32.948Z,6.77
2017-01-01T05:17:13.438Z,6.74
2017-01-01T05:17:53.948Z,6.82
2017-01-01T05:18:34.470Z,6.72
2017-01-01T05:19:14.946Z,6.74
2017-01-01T05:19:55.416Z,6.7
2017-01-01T05:20:35.904Z,6.77
2017-01-01T05:22:24.113Z,6.7
2017-01-01T05:23:04.835Z,6.78
2017-01-01T05:23:44.989Z,6.75
2017-01-01T05:24:25.506Z,6.74
2017-01-01T05:25:05.970Z,6.77
2017-01-01T05:25:46.453Z,6.7
2017-01-01T05:26:26.951Z,6.72
2017-01-01T05:27:07.418Z,6.85
2017-01-01T05:27:47.887Z,6.75
2017-01-01T05:28:28.395Z,6.79
2017-01-01T05:29:08.838Z,6.7
2017-01-01T05:29:49.331Z,6.81
2017-01-01T05:30:29.835Z,6.66
2017-01-01T05:31:10.331Z,6.66
2017-01-01T05:31:50.815Z,6.82
2017-01-01T05:32:31.288Z,6.78
2017-01-01T05:33:11.764Z,6.81
2017-01-01T05:33:52.256Z,6.7
2017-01-01T05:34:32.739Z,6.77
2017-01-01T05:35:13.208Z,6.82
2017-01-01T05:35:53.668Z,6.74
2017-01-01T05:36:34.167Z,6.77
2017-01-01T05:37:14.651Z,6.79
2017-01-01T05:37:55.170Z,6.75
2017-01-01T05:38:35.642Z,6.81
2017-01-01T05:39:16.111Z,6.78
2017-01-01T05:39:56.611Z,6.72
2017-01-01T05:40:37.104Z,6.7
2017-01-01T05:41:17.593Z,6.82
2017-01-01T05:41:58.069Z,6.72
2017-01-01T05:42:38.570Z,6.78
2017-01-01T05:43:19.056Z,6.74
2017-01-01T05:43:59.522Z,6.79
2017-01-01T05:44:39.994Z,6.67
2017-01-01T05:45:20.489Z,6.77
2017-01-01T05:46:00.971Z,6.78
2017-01-01T05:46:41.429Z,6.78
2017-01-01T05:47:21.916Z,6.82
2017-01-01T05:48:02.417Z,6.74
2017-01-01T05:48:42.916Z,6.75
2017-01-01T05:49:23.405Z,6.75
2017-01-01T05:50:03.902Z,6.74
2017-01-01T05:50:44.400Z,6.82
2017-01-01T05:51:24.894Z,6.74
2017-01-01T05:52:05.393Z,6.78
2017-01-01T05:52:45.887Z,6.75
2017-01-01T05:53:26.365Z,6.72
2017-01-01T05:54:06.864Z,6.66
2017-01-01T05:54:47.363Z,6.74
2017-01-01T05:55:27.855Z,6.72
2017-01-01T05:56:08.361Z,6.75
2017-01-01T05:56:48.858Z,6.7
2017-01-01T05:57:29.347Z,6.7
2017-01-01T05:58:09.810Z,6.77
2017-01-01T05:58:50.304Z,6.77
2017-01-01T05:59:30.809Z,6.77
2017-01-01T06:00:11.302Z,6.75
2017-01-01T06:00:51.793Z,6.74
2017-01-01T06:01:32.328Z,6.66
2017-01-01T06:02:12.851Z,6.77
2017-01-01T06:02:53.325Z,6.78
2017-01-01T06:03:33.819Z,6.78
2017-01-01T06:04:14.298Z,6.74
2017-01-01T06:04:54.777Z,6.72
2017-01-01T06:05:35.342Z,6.77
2017-01-01T06:06:15.826Z,6.75
2017-01-01T06:06:56.305Z,6.78
2017-01-01T06:07:36.803Z,6.77
2017-01-01T06:08:17.278Z,6.77
2017-01-01T06:08:57.786Z,6.72
2017-01-01T06:09:38.263Z,6.77
2017-01-01T06:10:18.750Z,6.74
2017-01-01T06:10:59.242Z,6.79
2017-01-01T06:11:39.718Z,6.79
2017-01-01T06:12:20.241Z,6.77
2017-01-01T06:13:00.708Z,6.78
2017-01-01T06:13:41.222Z,6.7
2017-01-01T06:14:21.676Z,6.72
2017-01-01T06:15:02.170Z,6.74
2017-01-01T06:15:42.651Z,6.7
2017-01-01T06:16:23.133Z,6.67
2017-01-01T06:17:03.619Z,6.74
2017-01-01T06:17:44.107Z,6.79
2017-01-01T06:18:24.597Z,6.84
2017-01-01T06:19:05.059Z,6.72
2017-01-01T06:19:45.525Z,6.81
2017-01-01T06:20:26.030Z,6.78
2017-01-01T06:21:06.507Z,6.67
2017-01-01T06:21:47.028Z,6.75
2017-01-01T06:22:27.502Z,6.69
2017-01-01T06:23:07.995Z,6.66
2017-01-01T06:23:48.467Z,6.75
2017-01-01T06:24:28.943Z,6.82
2017-01-01T06:25:09.421Z,6.67
2017-01-01T06:25:49.913Z,6.7
2017-01-01T06:26:30.427Z,6.75
2017-01-01T06:27:10.872Z,6.78
2017-01-01T06:27:51.361Z,6.69
2017-01-01T06:28:31.830Z,6.7
2017-01-01T06:29:12.330Z,6.69
2017-01-01T06:29:52.812Z,6.72
2017-01-01T06:30:33.284Z,6.7
2017-01-01T06:31:13.791Z,6.78
2017-01-01T06:31:54.239Z,6.74
2017-01-01T06:32:34.715Z,6.7
2017-01-01T06:33:15.167Z,6.75
2017-01-01T06:33:55.650Z,6.75
2017-01-01T06:34:36.132Z,6.77
2017-01-01T06:35:16.622Z,6.77
2017-01-01T06:35:57.128Z,6.75
2017-01-01T06:36:37.609Z,6.77
2017-01-01T06:37:18.099Z,6.74
2017-01-01T06:37:58.581Z,6.75
2017-01-01T06:38:39.071Z,6.78
2017-01-01T06:39:19.568Z,6.75
2017-01-01T06:40:00.042Z,6.69
2017-01-01T06:40:40.532Z,6.75
2017-01-01T06:41:20.999Z,6.62
2017-01-01T06:42:01.498Z,6.75
2017-01-01T06:42:42.009Z,6.75
2017-01-01T06:43:22.473Z,6.66
2017-01-01T06:44:02.927Z,6.72
2017-01-01T06:44:43.400Z,6.74
2017-01-01T06:45:23.877Z,6.62
2017-01-01T06:46:04.387Z,6.67
2017-01-01T06:46:44.853Z,6.72
2017-01-01T06:47:25.353Z,6.74
2017-01-01T06:48:05.793Z,6.7
2017-01-01T06:48:46.262Z,6.7
2017-01-01T06:49:26.732Z,6.7
2017-01-01T06:50:07.240Z,6.7
2017-01-01T06:50:47.739Z,6.75
2017-01-01T06:51:28.239Z,6.67
2017-01-01T06:52:08.708Z,6.74
2017-01-01T06:52:49.188Z,6.72
2017-01-01T06:53:29.663Z,6.66
2017-01-01T06:54:10.145Z,6.63
2017-01-01T06:54:50.604Z,6.67
2017-01-01T06:55:31.077Z,6.67
2017-01-01T06:56:11.549Z,6.7
2017-01-01T06:56:52.054Z,6.74
2017-01-01T06:57:32.551Z,6.63
2017-01-01T06:58:13.022Z,6.72
2017-01-01T06:58:53.499Z,6.59
2017-01-01T06:59:33.998Z,6.72
2017-01-01T07:00:14.472Z,6.72
2017-01-01T07:00:54.942Z,6.67
2017-01-01T07:01:35.444Z,6.67
2017-01-01T07:03:23.439Z,6.74
2017-01-01T07:04:04.099Z,6.63
2017-01-01T07:04:44.370Z,6.64
2017-01-01T07:05:24.837Z,6.64
2017-01-01T07:06:05.341Z,6.63
2017-01-01T07:06:45.828Z,6.64
2017-01-01T07:07:26.299Z,6.72
2017-01-01T07:08:06.785Z,6.6
2017-01-01T07:08:47.257Z,6.6
2017-01-01T07:09:27.726Z,6.72
2017-01-01T07:10:08.213Z,6.72
2017-01-01T07:10:48.685Z,6.67
2017-01-01T07:11:29.168Z,6.63
2017-01-01T07:12:09.632Z,6.63
2017-01-01T07:12:50.110Z,6.66
2017-01-01T07:13:30.581Z,6.6
2017-01-01T07:14:11.072Z,6.67
2017-01-01T07:14:51.546Z,6.72
2017-01-01T07:15:32.015Z,6.67
2017-01-01T07:16:12.521Z,6.69
2017-01-01T07:16:52.999Z,6.69
2017-01-01T07:17:33.482Z,6.74
2017-01-01T07:18:13.936Z,6.62
2017-01-01T07:18:54.419Z,6.57
2017-01-01T07:19:34.894Z,6.64
2017-01-01T07:20:15.341Z,6.62
2017-01-01T07:20:55.835Z,6.64
2017-01-01T07:21:36.329Z,6.62
2017-01-01T07:22:16.836Z,6.66
2017-01-01T07:22:57.293Z,6.64
2017-01-01T07:23:37.767Z,6.6
2017-01-01T07:24:18.252Z,6.62
2017-01-01T07:24:58.707Z,6.62
2017-01-01T07:25:39.160Z,6.62
2017-01-01T07:26:19.643Z,6.59
2017-01-01T07:27:00.152Z,6.56
2017-01-01T07:27:40.661Z,6.62
2017-01-01T07:28:21.140Z,6.57
2017-01-01T07:29:01.606Z,6.66
2017-01-01T07:29:42.076Z,6.63
2017-01-01T07:30:22.581Z,6.7
2017-01-01T07:31:03.059Z,6.64
2017-01-01T07:31:43.547Z,6.57
2017-01-01T07:32:24.048Z,6.59
2017-01-01T07:33:04.515Z,6.59
2017-01-01T07:33:44.993Z,6.6
2017-01-01T07:34:25.497Z,6.67
2017-01-01T07:35:05.981Z,6.56
2017-01-01T07:35:46.474Z,6.59
2017-01-01T07:36:27.003Z,6.6
2017-01-01T07:37:07.475Z,6.63
2017-01-01T07:37:47.940Z,6.52
2017-01-01T07:38:28.420Z,6.59
2017-01-01T07:39:08.905Z,6.67
2017-01-01T07:39:49.421Z,6.56
2017-01-01T07:40:29.907Z,6.57
2017-01-01T07:41:10.387Z,6.63
2017-01-01T07:41:50.867Z,6.63
2017-01-01T07:42:31.351Z,6.64
2017-01-01T07:43:11.826Z,6.64
2017-01-01T07:43:52.315Z,6.6
2017-01-01T07:44:32.834Z,6.63
2017-01-01T07:45:13.317Z,6.62
2017-01-01T07:45:53.796Z,6.67
2017-01-01T07:46:34.259Z,6.64
2017-01-01T07:47:14.761Z,6.6
2017-01-01T07:47:55.266Z,6.67
2017-01-01T07:48:35.738Z,6.67
2017-01-01T07:49:16.221Z,6.67
2017-01-01T07:49:56.715Z,6.64
2017-01-01T07:50:37.213Z,6.64
2017-01-01T07:51:17.681Z,6.63
2017-01-01T07:51:58.144Z,6.7
2017-01-01T07:52:38.606Z,6.66
2017-01-01T07:53:19.102Z,6.7
2017-01-01T07:53:59.588Z,6.7
2017-01-01T07:54:40.071Z,6.66
2017-01-01T07:55:20.559Z,6.64
2017-01-01T07:56:01.049Z,6.6
2017-01-01T07:56:41.565Z,6.6
2017-01-01T07:57:22.038Z,6.63
2017-01-01T07:58:02.521Z,6.67
2017-01-01T07:58:43.002Z,6.64
2017-01-01T07:59:23.519Z,6.6
2017-01-01T08:00:03.958Z,6.62
2017-01-01T08:00:44.459Z,6.7
2017-01-01T08:01:24.943Z,6.64
2017-01-01T08:02:05.465Z,6.62
2017-01-01T08:02:45.970Z,6.69
2017-01-01T08:03:26.466Z,6.66
2017-01-01T08:04:06.947Z,6.66
2017-01-01T08:04:47.413Z,6.63
2017-01-01T08:05:27.914Z,6.7
2017-01-01T08:06:08.365Z,6.57
2017-01-01T08:06:48.855Z,6.59
2017-01-01T08:07:29.348Z,6.67
2017-01-01T08:08:09.813Z,6.7
2017-01-01T08:08:50.355Z,6.6
2017-01-01T08:09:30.784Z,6.6
2017-01-01T08:10:11.270Z,6.62
2017-01-01T08:10:51.749Z,6.7
2017-01-01T08:11:32.260Z,6.67
2017-01-01T08:12:12.736Z,6.66
2017-01-01T08:12:53.216Z,6.69
2017-01-01T08:13:33.700Z,6.72
2017-01-01T08:14:14.187Z,6.72
2017-01-01T08:14:54.656Z,6.62
2017-01-01T08:15:35.137Z,6.69
2017-01-01T08:16:15.654Z,6.7
2017-01-01T08:16:56.124Z,6.75
2017-01-01T08:17:36.612Z,6.72
2017-01-01T08:18:17.086Z,6.69
2017-01-01T08:18:57.566Z,6.81
2017-01-01T08:19:38.067Z,6.74
2017-01-01T08:20:18.558Z,6.77
2017-01-01T08:20:59.041Z,6.72
2017-01-01T08:21:39.535Z,6.75
2017-01-01T08:22:20.023Z,6.77
2017-01-01T08:23:00.541Z,6.72
2017-01-01T08:23:41.004Z,6.79
2017-01-01T08:24:21.496Z,6.7
2017-01-01T08:25:01.994Z,6.69
2017-01-01T08:25:42.490Z,6.78
2017-01-01T08:26:22.964Z,6.75
2017-01-01T08:27:03.442Z,6.79
2017-01-01T08:27:43.939Z,6.79
2017-01-01T08:28:24.432Z,6.85
2017-01-01T08:29:04.917Z,6.84
2017-01-01T08:29:45.415Z,6.87
2017-01-01T08:30:25.876Z,6.84
2017-01-01T08:31:06.384Z,6.82
2017-01-01T08:31:46.868Z,6.72
2017-01-01T08:32:27.352Z,6.74
2017-01-01T08:33:07.824Z,6.77
2017-01-01T08:33:48.292Z,6.74
2017-01-01T08:34:28.800Z,6.82
2017-01-01T08:35:09.297Z,6.77
2017-01-01T08:35:49.798Z,6.82
2017-01-01T08:36:30.293Z,6.85
2017-01-01T08:37:10.802Z,6.84
2017-01-01T08:37:51.281Z,6.85
2017-01-01T08:38:31.736Z,6.85
2017-01-01T08:39:12.213Z,6.82
2017-01-01T08:39:52.754Z,6.81
2017-01-01T08:40:33.245Z,6.74
2017-01-01T08:41:13.738Z,6.87
2017-01-01T08:41:54.232Z,6.87
2017-01-01T08:42:34.718Z,6.82
2017-01-01T08:43:15.206Z,6.78
2017-01-01T08:43:55.696Z,6.81
2017-01-01T08:44:36.181Z,6.82
2017-01-01T08:45:16.666Z,6.85
2017-01-01T08:45:57.148Z,6.85
2017-01-01T08:46:37.643Z,6.78
2017-01-01T08:47:18.114Z,6.81
2017-01-01T08:47:58.579Z,6.85
2017-01-01T08:48:39.083Z,6.84
2017-01-01T08:49:19.568Z,6.87
2017-01-01T08:50:00.033Z,6.87
2017-01-01T08:50:40.496Z,6.92
2017-01-01T08:51:20.983Z,6.87
2017-01-01T08:52:01.465Z,6.85
2017-01-01T08:52:41.959Z,6.92
2017-01-01T08:53:22.445Z,6.82
2017-01-01T08:54:02.946Z,6.85
2017-01-01T08:54:43.440Z,6.95
2017-01-01T08:55:23.910Z,6.81
2017-01-01T08:56:04.368Z,6.89
2017-01-01T08:56:44.842Z,6.89
2017-01-01T08:57:25.348Z,6.93
2017-01-01T08:58:05.813Z,6.89
2017-01-01T08:58:46.270Z,6.92
2017-01-01T08:59:26.745Z,6.89
2017-01-01T09:00:07.247Z,6.81
2017-01-01T09:00:47.717Z,6.87
2017-01-01T09:01:28.241Z,6.85
2017-01-01T09:02:08.731Z,6.95
2017-01-01T09:02:49.213Z,6.96
2017-01-01T09:03:29.688Z,6.92
2017-01-01T09:04:10.194Z,6.95